sensor_id;sensor_type;location;lat;lon;timestamp;P1;durP1;ratioP1;P2;durP2;ratioP2
15454;SDS011;21057;51.024;7.540;2022-11-20T00:01:15;26.10;;;24.33;;
15454;SDS011;21057;51.024;7.540;2022-11-20T00:03:43;24.70;;;23.03;;
15454;SDS011;21057;51.024;7.540;2022-11-20T00:06:11;24.77;;;23.07;;
15454;SDS011;21057;51.024;7.540;2022-11-20T00:08:40;25.00;;;23.33;;
15454;SDS011;21057;51.024;7.540;2022-11-20T00:11:08;24.03;;;22.47;;
15454;SDS011;21057;51.024;7.540;2022-11-20T00:13:36;24.60;;;22.87;;
15454;SDS011;21057;51.024;7.540;2022-11-20T00:16:04;25.47;;;23.20;;
15454;SDS011;21057;51.024;7.540;2022-11-20T00:18:32;25.07;;;23.27;;
15454;SDS011;21057;51.024;7.540;2022-11-20T00:21:00;25.23;;;23.33;;
15454;SDS011;21057;51.024;7.540;2022-11-20T00:23:28;24.97;;;23.27;;
15454;SDS011;21057;51.024;7.540;2022-11-20T00:25:56;24.67;;;22.70;;
15454;SDS011;21057;51.024;7.540;2022-11-20T00:28:26;24.73;;;23.17;;
15454;SDS011;21057;51.024;7.540;2022-11-20T00:30:59;24.73;;;22.90;;
15454;SDS011;21057;51.024;7.540;2022-11-20T00:33:27;24.23;;;22.40;;
15454;SDS011;21057;51.024;7.540;2022-11-20T00:35:58;26.63;;;24.63;;
15454;SDS011;21057;51.024;7.540;2022-11-20T00:38:26;28.37;;;26.07;;
15454;SDS011;21057;51.024;7.540;2022-11-20T00:40:54;24.30;;;22.70;;
15454;SDS011;21057;51.024;7.540;2022-11-20T00:43:23;24.60;;;23.03;;
15454;SDS011;21057;51.024;7.540;2022-11-20T00:45:51;24.47;;;22.47;;
15454;SDS011;21057;51.024;7.540;2022-11-20T00:48:22;24.70;;;22.83;;
15454;SDS011;21057;51.024;7.540;2022-11-20T00:50:48;24.83;;;23.03;;
15454;SDS011;21057;51.024;7.540;2022-11-20T00:53:15;22.77;;;21.37;;
15454;SDS011;21057;51.024;7.540;2022-11-20T00:55:42;24.37;;;22.47;;
15454;SDS011;21057;51.024;7.540;2022-11-20T00:58:10;22.60;;;21.20;;
15454;SDS011;21057;51.024;7.540;2022-11-20T01:00:37;23.73;;;22.03;;
15454;SDS011;21057;51.024;7.540;2022-11-20T01:03:03;24.27;;;22.57;;
15454;SDS011;21057;51.024;7.540;2022-11-20T01:05:33;24.20;;;22.13;;
15454;SDS011;21057;51.024;7.540;2022-11-20T01:08:00;26.03;;;23.83;;
15454;SDS011;21057;51.024;7.540;2022-11-20T01:10:27;24.60;;;22.70;;
15454;SDS011;21057;51.024;7.540;2022-11-20T01:12:54;23.17;;;21.77;;
15454;SDS011;21057;51.024;7.540;2022-11-20T01:15:36;23.83;;;22.13;;
15454;SDS011;21057;51.024;7.540;2022-11-20T01:18:03;24.27;;;22.57;;
15454;SDS011;21057;51.024;7.540;2022-11-20T01:20:33;25.03;;;23.13;;
15454;SDS011;21057;51.024;7.540;2022-11-20T01:23:00;23.77;;;22.17;;
15454;SDS011;21057;51.024;7.540;2022-11-20T01:25:27;25.40;;;23.47;;
15454;SDS011;21057;51.024;7.540;2022-11-20T01:27:54;25.80;;;23.97;;
15454;SDS011;21057;51.024;7.540;2022-11-20T01:30:21;25.37;;;23.40;;
15454;SDS011;21057;51.024;7.540;2022-11-20T01:32:49;26.20;;;23.97;;
15454;SDS011;21057;51.024;7.540;2022-11-20T01:35:16;24.77;;;23.13;;
15454;SDS011;21057;51.024;7.540;2022-11-20T01:37:43;25.33;;;23.53;;
15454;SDS011;21057;51.024;7.540;2022-11-20T01:40:10;26.37;;;24.57;;
15454;SDS011;21057;51.024;7.540;2022-11-20T01:42:37;25.07;;;23.23;;
15454;SDS011;21057;51.024;7.540;2022-11-20T01:48:16;23.97;;;22.17;;
15454;SDS011;21057;51.024;7.540;2022-11-20T01:50:44;25.60;;;23.50;;
15454;SDS011;21057;51.024;7.540;2022-11-20T01:53:12;24.23;;;22.13;;
15454;SDS011;21057;51.024;7.540;2022-11-20T01:55:43;25.23;;;23.60;;
15454;SDS011;21057;51.024;7.540;2022-11-20T01:58:14;23.73;;;22.33;;
15454;SDS011;21057;51.024;7.540;2022-11-20T02:00:42;25.27;;;23.37;;
15454;SDS011;21057;51.024;7.540;2022-11-20T02:03:10;25.70;;;23.87;;
15454;SDS011;21057;51.024;7.540;2022-11-20T02:05:41;25.43;;;23.73;;
15454;SDS011;21057;51.024;7.540;2022-11-20T02:08:11;24.33;;;22.60;;
15454;SDS011;21057;51.024;7.540;2022-11-20T02:10:39;24.90;;;23.17;;
15454;SDS011;21057;51.024;7.540;2022-11-20T02:13:06;23.93;;;22.20;;
15454;SDS011;21057;51.024;7.540;2022-11-20T02:15:55;26.10;;;24.07;;
15454;SDS011;21057;51.024;7.540;2022-11-20T02:18:22;25.27;;;23.47;;
15454;SDS011;21057;51.024;7.540;2022-11-20T02:20:52;23.97;;;22.37;;
15454;SDS011;21057;51.024;7.540;2022-11-20T02:23:23;23.90;;;22.17;;
15454;SDS011;21057;51.024;7.540;2022-11-20T02:25:58;23.73;;;22.07;;
15454;SDS011;21057;51.024;7.540;2022-11-20T02:28:27;24.03;;;22.30;;
15454;SDS011;21057;51.024;7.540;2022-11-20T02:30:54;23.47;;;21.97;;
15454;SDS011;21057;51.024;7.540;2022-11-20T02:33:21;27.27;;;24.93;;
15454;SDS011;21057;51.024;7.540;2022-11-20T02:35:48;23.40;;;21.80;;
15454;SDS011;21057;51.024;7.540;2022-11-20T02:38:15;23.53;;;21.93;;
15454;SDS011;21057;51.024;7.540;2022-11-20T02:40:41;24.37;;;22.67;;
15454;SDS011;21057;51.024;7.540;2022-11-20T02:43:10;24.40;;;22.63;;
15454;SDS011;21057;51.024;7.540;2022-11-20T02:45:37;23.90;;;22.20;;
15454;SDS011;21057;51.024;7.540;2022-11-20T02:48:05;25.40;;;23.57;;
15454;SDS011;21057;51.024;7.540;2022-11-20T02:50:35;23.53;;;21.90;;
15454;SDS011;21057;51.024;7.540;2022-11-20T02:53:03;23.60;;;21.97;;
15454;SDS011;21057;51.024;7.540;2022-11-20T02:55:30;23.40;;;21.73;;
15454;SDS011;21057;51.024;7.540;2022-11-20T02:57:57;25.07;;;23.27;;
15454;SDS011;21057;51.024;7.540;2022-11-20T03:00:25;24.23;;;22.60;;
15454;SDS011;21057;51.024;7.540;2022-11-20T03:02:52;25.60;;;23.70;;
15454;SDS011;21057;51.024;7.540;2022-11-20T03:05:19;25.57;;;23.73;;
15454;SDS011;21057;51.024;7.540;2022-11-20T03:07:46;24.23;;;22.80;;
15454;SDS011;21057;51.024;7.540;2022-11-20T03:10:12;25.33;;;23.00;;
15454;SDS011;21057;51.024;7.540;2022-11-20T03:12:39;23.40;;;21.63;;
15454;SDS011;21057;51.024;7.540;2022-11-20T03:15:06;24.03;;;21.87;;
15454;SDS011;21057;51.024;7.540;2022-11-20T03:17:35;23.93;;;22.03;;
15454;SDS011;21057;51.024;7.540;2022-11-20T03:20:02;24.97;;;23.07;;
15454;SDS011;21057;51.024;7.540;2022-11-20T03:22:29;24.43;;;22.70;;
15454;SDS011;21057;51.024;7.540;2022-11-20T03:24:56;24.80;;;23.07;;
15454;SDS011;21057;51.024;7.540;2022-11-20T03:27:23;25.47;;;23.57;;
15454;SDS011;21057;51.024;7.540;2022-11-20T03:29:50;26.10;;;24.00;;
15454;SDS011;21057;51.024;7.540;2022-11-20T03:32:17;24.03;;;22.40;;
15454;SDS011;21057;51.024;7.540;2022-11-20T03:34:45;23.60;;;21.83;;
15454;SDS011;21057;51.024;7.540;2022-11-20T03:37:12;25.27;;;23.37;;
15454;SDS011;21057;51.024;7.540;2022-11-20T03:39:38;23.63;;;22.07;;
15454;SDS011;21057;51.024;7.540;2022-11-20T03:42:05;25.47;;;23.47;;
15454;SDS011;21057;51.024;7.540;2022-11-20T03:44:52;23.17;;;21.53;;
15454;SDS011;21057;51.024;7.540;2022-11-20T03:47:19;24.17;;;22.43;;
15454;SDS011;21057;51.024;7.540;2022-11-20T03:49:47;25.63;;;23.83;;
15454;SDS011;21057;51.024;7.540;2022-11-20T03:52:14;24.87;;;23.20;;
15454;SDS011;21057;51.024;7.540;2022-11-20T03:54:41;25.70;;;23.57;;
15454;SDS011;21057;51.024;7.540;2022-11-20T03:57:07;23.77;;;22.27;;
15454;SDS011;21057;51.024;7.540;2022-11-20T03:59:34;24.20;;;22.43;;
15454;SDS011;21057;51.024;7.540;2022-11-20T04:02:01;26.67;;;24.67;;
15454;SDS011;21057;51.024;7.540;2022-11-20T04:04:28;25.03;;;23.23;;
15454;SDS011;21057;51.024;7.540;2022-11-20T04:06:56;25.73;;;23.47;;
15454;SDS011;21057;51.024;7.540;2022-11-20T04:09:23;23.77;;;22.07;;
15454;SDS011;21057;51.024;7.540;2022-11-20T04:11:49;25.47;;;23.33;;
15454;SDS011;21057;51.024;7.540;2022-11-20T04:14:16;24.70;;;22.90;;
15454;SDS011;21057;51.024;7.540;2022-11-20T04:16:43;23.73;;;22.23;;
15454;SDS011;21057;51.024;7.540;2022-11-20T04:19:13;25.17;;;23.30;;
15454;SDS011;21057;51.024;7.540;2022-11-20T04:21:41;24.03;;;22.43;;
15454;SDS011;21057;51.024;7.540;2022-11-20T04:24:09;25.43;;;23.73;;
15454;SDS011;21057;51.024;7.540;2022-11-20T04:26:36;28.00;;;25.60;;
15454;SDS011;21057;51.024;7.540;2022-11-20T04:29:04;24.90;;;23.10;;
15454;SDS011;21057;51.024;7.540;2022-11-20T04:31:31;26.40;;;24.43;;
15454;SDS011;21057;51.024;7.540;2022-11-20T04:33:59;25.77;;;24.07;;
15454;SDS011;21057;51.024;7.540;2022-11-20T04:36:28;24.93;;;23.17;;
15454;SDS011;21057;51.024;7.540;2022-11-20T04:38:56;25.57;;;23.67;;
15454;SDS011;21057;51.024;7.540;2022-11-20T04:41:26;25.47;;;23.57;;
15454;SDS011;21057;51.024;7.540;2022-11-20T04:43:55;26.07;;;24.00;;
15454;SDS011;21057;51.024;7.540;2022-11-20T04:46:27;25.43;;;23.83;;
15454;SDS011;21057;51.024;7.540;2022-11-20T04:48:55;26.30;;;24.63;;
15454;SDS011;21057;51.024;7.540;2022-11-20T04:51:22;24.47;;;23.00;;
15454;SDS011;21057;51.024;7.540;2022-11-20T04:53:49;25.47;;;23.67;;
15454;SDS011;21057;51.024;7.540;2022-11-20T04:56:16;25.97;;;24.13;;
15454;SDS011;21057;51.024;7.540;2022-11-20T04:58:45;26.60;;;24.43;;
15454;SDS011;21057;51.024;7.540;2022-11-20T05:01:13;27.23;;;25.10;;
15454;SDS011;21057;51.024;7.540;2022-11-20T05:03:41;27.57;;;25.20;;
15454;SDS011;21057;51.024;7.540;2022-11-20T05:06:10;27.60;;;25.60;;
15454;SDS011;21057;51.024;7.540;2022-11-20T05:08:39;27.60;;;25.27;;
15454;SDS011;21057;51.024;7.540;2022-11-20T05:11:06;27.57;;;25.57;;
15454;SDS011;21057;51.024;7.540;2022-11-20T05:13:34;26.57;;;24.77;;
15454;SDS011;21057;51.024;7.540;2022-11-20T05:16:03;25.93;;;24.20;;
15454;SDS011;21057;51.024;7.540;2022-11-20T05:18:32;26.40;;;24.50;;
15454;SDS011;21057;51.024;7.540;2022-11-20T05:20:59;27.13;;;25.13;;
15454;SDS011;21057;51.024;7.540;2022-11-20T05:23:27;26.67;;;24.53;;
15454;SDS011;21057;51.024;7.540;2022-11-20T05:25:57;26.37;;;24.63;;
15454;SDS011;21057;51.024;7.540;2022-11-20T05:28:25;28.13;;;25.90;;
15454;SDS011;21057;51.024;7.540;2022-11-20T05:30:52;27.17;;;25.10;;
15454;SDS011;21057;51.024;7.540;2022-11-20T05:33:21;28.07;;;25.67;;
15454;SDS011;21057;51.024;7.540;2022-11-20T05:35:48;28.00;;;25.93;;
15454;SDS011;21057;51.024;7.540;2022-11-20T05:38:15;26.23;;;24.47;;
15454;SDS011;21057;51.024;7.540;2022-11-20T05:40:42;25.37;;;23.67;;
15454;SDS011;21057;51.024;7.540;2022-11-20T05:43:08;26.93;;;25.03;;
15454;SDS011;21057;51.024;7.540;2022-11-20T05:45:35;26.00;;;24.33;;
15454;SDS011;21057;51.024;7.540;2022-11-20T05:48:02;27.13;;;25.27;;
15454;SDS011;21057;51.024;7.540;2022-11-20T05:50:30;27.63;;;25.63;;
15454;SDS011;21057;51.024;7.540;2022-11-20T05:52:57;26.27;;;24.23;;
15454;SDS011;21057;51.024;7.540;2022-11-20T05:55:25;26.63;;;24.77;;
15454;SDS011;21057;51.024;7.540;2022-11-20T05:57:52;27.73;;;25.30;;
15454;SDS011;21057;51.024;7.540;2022-11-20T06:00:19;27.93;;;25.60;;
15454;SDS011;21057;51.024;7.540;2022-11-20T06:02:46;27.37;;;25.40;;
15454;SDS011;21057;51.024;7.540;2022-11-20T06:05:13;26.57;;;24.77;;
15454;SDS011;21057;51.024;7.540;2022-11-20T06:07:41;26.90;;;25.07;;
15454;SDS011;21057;51.024;7.540;2022-11-20T06:10:09;27.93;;;25.97;;
15454;SDS011;21057;51.024;7.540;2022-11-20T06:12:35;27.17;;;25.27;;
15454;SDS011;21057;51.024;7.540;2022-11-20T06:15:02;26.20;;;24.17;;
15454;SDS011;21057;51.024;7.540;2022-11-20T06:17:30;27.90;;;26.00;;
15454;SDS011;21057;51.024;7.540;2022-11-20T06:19:57;25.90;;;23.90;;
15454;SDS011;21057;51.024;7.540;2022-11-20T06:22:24;26.03;;;24.23;;
15454;SDS011;21057;51.024;7.540;2022-11-20T06:24:52;27.17;;;25.17;;
15454;SDS011;21057;51.024;7.540;2022-11-20T06:27:18;27.37;;;25.23;;
15454;SDS011;21057;51.024;7.540;2022-11-20T06:29:45;27.63;;;25.63;;
15454;SDS011;21057;51.024;7.540;2022-11-20T06:32:12;25.83;;;23.93;;
15454;SDS011;21057;51.024;7.540;2022-11-20T06:34:39;28.13;;;25.50;;
15454;SDS011;21057;51.024;7.540;2022-11-20T06:37:06;25.50;;;23.80;;
15454;SDS011;21057;51.024;7.540;2022-11-20T06:39:33;26.37;;;24.53;;
15454;SDS011;21057;51.024;7.540;2022-11-20T06:42:01;27.20;;;25.23;;
15454;SDS011;21057;51.024;7.540;2022-11-20T06:44:27;29.33;;;26.87;;
15454;SDS011;21057;51.024;7.540;2022-11-20T06:46:54;26.77;;;24.77;;
15454;SDS011;21057;51.024;7.540;2022-11-20T06:49:21;27.30;;;25.30;;
15454;SDS011;21057;51.024;7.540;2022-11-20T06:51:48;27.37;;;25.00;;
15454;SDS011;21057;51.024;7.540;2022-11-20T06:54:15;26.13;;;24.30;;
15454;SDS011;21057;51.024;7.540;2022-11-20T06:56:41;27.47;;;25.13;;
15454;SDS011;21057;51.024;7.540;2022-11-20T06:59:09;26.30;;;24.17;;
15454;SDS011;21057;51.024;7.540;2022-11-20T07:01:36;27.43;;;25.43;;
15454;SDS011;21057;51.024;7.540;2022-11-20T07:04:03;26.10;;;24.10;;
15454;SDS011;21057;51.024;7.540;2022-11-20T07:06:30;26.43;;;24.50;;
15454;SDS011;21057;51.024;7.540;2022-11-20T07:08:57;27.83;;;25.73;;
15454;SDS011;21057;51.024;7.540;2022-11-20T07:11:24;26.93;;;24.97;;
15454;SDS011;21057;51.024;7.540;2022-11-20T07:13:51;27.83;;;25.63;;
15454;SDS011;21057;51.024;7.540;2022-11-20T07:16:19;28.37;;;26.43;;
15454;SDS011;21057;51.024;7.540;2022-11-20T07:18:46;26.83;;;24.83;;
15454;SDS011;21057;51.024;7.540;2022-11-20T07:21:13;28.27;;;26.13;;
15454;SDS011;21057;51.024;7.540;2022-11-20T07:23:40;27.23;;;25.17;;
15454;SDS011;21057;51.024;7.540;2022-11-20T07:26:08;28.00;;;25.97;;
15454;SDS011;21057;51.024;7.540;2022-11-20T07:28:36;26.73;;;24.60;;
15454;SDS011;21057;51.024;7.540;2022-11-20T07:31:03;27.00;;;24.87;;
15454;SDS011;21057;51.024;7.540;2022-11-20T07:33:33;37.63;;;32.57;;
15454;SDS011;21057;51.024;7.540;2022-11-20T07:35:59;35.10;;;31.80;;
15454;SDS011;21057;51.024;7.540;2022-11-20T07:38:27;26.90;;;24.70;;
15454;SDS011;21057;51.024;7.540;2022-11-20T07:40:54;26.53;;;24.77;;
15454;SDS011;21057;51.024;7.540;2022-11-20T07:43:22;27.60;;;25.53;;
15454;SDS011;21057;51.024;7.540;2022-11-20T07:45:50;28.43;;;26.13;;
15454;SDS011;21057;51.024;7.540;2022-11-20T07:48:17;33.13;;;26.63;;
15454;SDS011;21057;51.024;7.540;2022-11-20T07:50:45;27.80;;;25.70;;
15454;SDS011;21057;51.024;7.540;2022-11-20T07:53:12;31.17;;;27.83;;
15454;SDS011;21057;51.024;7.540;2022-11-20T07:55:45;27.90;;;25.27;;
15454;SDS011;21057;51.024;7.540;2022-11-20T07:58:12;27.37;;;24.83;;
15454;SDS011;21057;51.024;7.540;2022-11-20T08:00:39;25.93;;;23.77;;
15454;SDS011;21057;51.024;7.540;2022-11-20T08:03:06;25.83;;;23.93;;
15454;SDS011;21057;51.024;7.540;2022-11-20T08:05:33;25.80;;;23.83;;
15454;SDS011;21057;51.024;7.540;2022-11-20T08:08:01;25.97;;;23.90;;
15454;SDS011;21057;51.024;7.540;2022-11-20T08:10:29;27.00;;;24.20;;
15454;SDS011;21057;51.024;7.540;2022-11-20T08:12:55;26.57;;;24.03;;
15454;SDS011;21057;51.024;7.540;2022-11-20T08:15:40;26.53;;;24.57;;
15454;SDS011;21057;51.024;7.540;2022-11-20T08:18:08;27.97;;;25.57;;
15454;SDS011;21057;51.024;7.540;2022-11-20T08:20:36;30.27;;;27.73;;
15454;SDS011;21057;51.024;7.540;2022-11-20T08:23:05;28.00;;;25.73;;
15454;SDS011;21057;51.024;7.540;2022-11-20T08:25:33;28.77;;;26.67;;
15454;SDS011;21057;51.024;7.540;2022-11-20T08:28:01;29.10;;;26.80;;
15454;SDS011;21057;51.024;7.540;2022-11-20T08:30:29;29.13;;;26.77;;
15454;SDS011;21057;51.024;7.540;2022-11-20T08:33:00;29.57;;;27.13;;
15454;SDS011;21057;51.024;7.540;2022-11-20T08:35:29;26.97;;;24.80;;
15454;SDS011;21057;51.024;7.540;2022-11-20T08:37:59;28.67;;;26.30;;
15454;SDS011;21057;51.024;7.540;2022-11-20T08:40:27;26.27;;;24.27;;
15454;SDS011;21057;51.024;7.540;2022-11-20T08:42:54;29.80;;;27.40;;
15454;SDS011;21057;51.024;7.540;2022-11-20T08:45:21;29.93;;;27.30;;
15454;SDS011;21057;51.024;7.540;2022-11-20T08:47:48;30.73;;;27.97;;
15454;SDS011;21057;51.024;7.540;2022-11-20T08:50:15;30.37;;;27.60;;
15454;SDS011;21057;51.024;7.540;2022-11-20T08:52:43;31.90;;;28.87;;
15454;SDS011;21057;51.024;7.540;2022-11-20T08:55:10;28.37;;;26.43;;
15454;SDS011;21057;51.024;7.540;2022-11-20T08:57:39;29.17;;;26.47;;
15454;SDS011;21057;51.024;7.540;2022-11-20T09:00:06;27.93;;;25.93;;
15454;SDS011;21057;51.024;7.540;2022-11-20T09:02:34;29.40;;;27.10;;
15454;SDS011;21057;51.024;7.540;2022-11-20T09:05:01;29.43;;;27.37;;
15454;SDS011;21057;51.024;7.540;2022-11-20T09:07:28;28.63;;;26.47;;
15454;SDS011;21057;51.024;7.540;2022-11-20T09:09:55;30.23;;;27.70;;
15454;SDS011;21057;51.024;7.540;2022-11-20T09:12:22;29.50;;;27.30;;
15454;SDS011;21057;51.024;7.540;2022-11-20T09:14:50;29.03;;;26.97;;
15454;SDS011;21057;51.024;7.540;2022-11-20T09:17:17;28.27;;;26.27;;
15454;SDS011;21057;51.024;7.540;2022-11-20T09:19:45;28.03;;;25.73;;
15454;SDS011;21057;51.024;7.540;2022-11-20T09:22:13;28.57;;;26.37;;
15454;SDS011;21057;51.024;7.540;2022-11-20T09:24:39;27.37;;;25.07;;
15454;SDS011;21057;51.024;7.540;2022-11-20T09:27:07;28.93;;;26.63;;
15454;SDS011;21057;51.024;7.540;2022-11-20T09:29:34;27.53;;;25.03;;
15454;SDS011;21057;51.024;7.540;2022-11-20T09:32:02;27.00;;;25.03;;
15454;SDS011;21057;51.024;7.540;2022-11-20T09:34:29;27.80;;;25.60;;
15454;SDS011;21057;51.024;7.540;2022-11-20T09:36:56;27.83;;;25.70;;
15454;SDS011;21057;51.024;7.540;2022-11-20T09:39:23;27.53;;;25.13;;
15454;SDS011;21057;51.024;7.540;2022-11-20T09:41:59;26.93;;;24.80;;
15454;SDS011;21057;51.024;7.540;2022-11-20T09:47:35;25.77;;;23.67;;
15454;SDS011;21057;51.024;7.540;2022-11-20T09:50:17;26.57;;;24.50;;
15454;SDS011;21057;51.024;7.540;2022-11-20T09:52:56;25.53;;;23.63;;
15454;SDS011;21057;51.024;7.540;2022-11-20T09:55:33;25.80;;;23.43;;
15454;SDS011;21057;51.024;7.540;2022-11-20T09:58:04;25.90;;;23.77;;
15454;SDS011;21057;51.024;7.540;2022-11-20T10:00:34;23.80;;;22.13;;
15454;SDS011;21057;51.024;7.540;2022-11-20T10:03:03;26.53;;;24.13;;
15454;SDS011;21057;51.024;7.540;2022-11-20T10:05:39;27.03;;;24.60;;
15454;SDS011;21057;51.024;7.540;2022-11-20T10:08:10;25.30;;;23.37;;
15454;SDS011;21057;51.024;7.540;2022-11-20T10:10:44;26.33;;;24.20;;
15454;SDS011;21057;51.024;7.540;2022-11-20T10:16:09;25.90;;;23.73;;
15454;SDS011;21057;51.024;7.540;2022-11-20T10:18:53;25.00;;;22.80;;
15454;SDS011;21057;51.024;7.540;2022-11-20T10:21:30;24.37;;;22.47;;
15454;SDS011;21057;51.024;7.540;2022-11-20T10:27:02;22.53;;;21.03;;
15454;SDS011;21057;51.024;7.540;2022-11-20T10:29:33;25.43;;;23.33;;
15454;SDS011;21057;51.024;7.540;2022-11-20T10:32:03;25.40;;;23.40;;
15454;SDS011;21057;51.024;7.540;2022-11-20T10:34:41;26.63;;;24.60;;
15454;SDS011;21057;51.024;7.540;2022-11-20T10:37:15;25.53;;;23.43;;
15454;SDS011;21057;51.024;7.540;2022-11-20T10:39:47;24.73;;;22.93;;
15454;SDS011;21057;51.024;7.540;2022-11-20T10:42:20;24.40;;;22.40;;
15454;SDS011;21057;51.024;7.540;2022-11-20T10:44:55;24.13;;;22.43;;
15454;SDS011;21057;51.024;7.540;2022-11-20T10:47:29;26.03;;;23.93;;
15454;SDS011;21057;51.024;7.540;2022-11-20T10:50:01;25.17;;;23.07;;
15454;SDS011;21057;51.024;7.540;2022-11-20T10:52:32;25.30;;;23.10;;
15454;SDS011;21057;51.024;7.540;2022-11-20T10:55:06;25.60;;;23.40;;
15454;SDS011;21057;51.024;7.540;2022-11-20T10:57:52;23.17;;;21.03;;
15454;SDS011;21057;51.024;7.540;2022-11-20T11:00:24;24.23;;;22.20;;
15454;SDS011;21057;51.024;7.540;2022-11-20T11:02:51;23.50;;;21.37;;
15454;SDS011;21057;51.024;7.540;2022-11-20T11:05:27;23.53;;;21.33;;
15454;SDS011;21057;51.024;7.540;2022-11-20T11:07:59;23.83;;;21.67;;
15454;SDS011;21057;51.024;7.540;2022-11-20T11:10:28;22.77;;;21.17;;
15454;SDS011;21057;51.024;7.540;2022-11-20T11:13:02;25.50;;;23.17;;
15454;SDS011;21057;51.024;7.540;2022-11-20T11:15:36;22.50;;;20.73;;
15454;SDS011;21057;51.024;7.540;2022-11-20T11:18:04;23.10;;;21.33;;
15454;SDS011;21057;51.024;7.540;2022-11-20T11:20:32;23.47;;;21.37;;
15454;SDS011;21057;51.024;7.540;2022-11-20T11:22:59;24.43;;;22.40;;
15454;SDS011;21057;51.024;7.540;2022-11-20T11:25:27;23.73;;;21.97;;
15454;SDS011;21057;51.024;7.540;2022-11-20T11:27:57;23.57;;;21.73;;
15454;SDS011;21057;51.024;7.540;2022-11-20T11:30:26;23.37;;;21.17;;
15454;SDS011;21057;51.024;7.540;2022-11-20T11:33:04;24.57;;;21.97;;
15454;SDS011;21057;51.024;7.540;2022-11-20T11:35:38;21.77;;;20.17;;
15454;SDS011;21057;51.024;7.540;2022-11-20T11:38:11;23.97;;;21.97;;
15454;SDS011;21057;51.024;7.540;2022-11-20T11:40:42;24.30;;;22.27;;
15454;SDS011;21057;51.024;7.540;2022-11-20T11:43:16;22.87;;;20.97;;
15454;SDS011;21057;51.024;7.540;2022-11-20T11:46:03;23.83;;;21.93;;
15454;SDS011;21057;51.024;7.540;2022-11-20T11:48:39;24.00;;;22.07;;
15454;SDS011;21057;51.024;7.540;2022-11-20T11:51:08;24.90;;;22.90;;
15454;SDS011;21057;51.024;7.540;2022-11-20T11:53:35;25.47;;;23.23;;
15454;SDS011;21057;51.024;7.540;2022-11-20T11:56:08;22.57;;;20.73;;
15454;SDS011;21057;51.024;7.540;2022-11-20T11:58:40;24.73;;;22.57;;
15454;SDS011;21057;51.024;7.540;2022-11-20T12:01:17;24.50;;;22.23;;
15454;SDS011;21057;51.024;7.540;2022-11-20T12:03:59;23.27;;;21.23;;
15454;SDS011;21057;51.024;7.540;2022-11-20T12:06:32;23.63;;;21.50;;
15454;SDS011;21057;51.024;7.540;2022-11-20T12:09:02;23.67;;;21.70;;
15454;SDS011;21057;51.024;7.540;2022-11-20T12:11:31;24.90;;;22.70;;
15454;SDS011;21057;51.024;7.540;2022-11-20T12:14:04;24.80;;;22.70;;
15454;SDS011;21057;51.024;7.540;2022-11-20T12:16:38;26.07;;;24.10;;
15454;SDS011;21057;51.024;7.540;2022-11-20T12:19:07;26.33;;;24.23;;
15454;SDS011;21057;51.024;7.540;2022-11-20T12:21:41;24.70;;;22.70;;
15454;SDS011;21057;51.024;7.540;2022-11-20T12:30:08;25.60;;;23.50;;
15454;SDS011;21057;51.024;7.540;2022-11-20T12:32:50;24.87;;;22.77;;
15454;SDS011;21057;51.024;7.540;2022-11-20T12:35:38;25.60;;;23.27;;
15454;SDS011;21057;51.024;7.540;2022-11-20T12:41:07;25.80;;;23.43;;
15454;SDS011;21057;51.024;7.540;2022-11-20T12:44:04;26.53;;;24.10;;
15454;SDS011;21057;51.024;7.540;2022-11-20T12:47:03;25.67;;;23.50;;
15454;SDS011;21057;51.024;7.540;2022-11-20T12:49:41;25.33;;;23.27;;
15454;SDS011;21057;51.024;7.540;2022-11-20T12:52:19;27.50;;;25.27;;
15454;SDS011;21057;51.024;7.540;2022-11-20T12:55:01;25.37;;;23.27;;
15454;SDS011;21057;51.024;7.540;2022-11-20T12:57:45;28.57;;;25.90;;
15454;SDS011;21057;51.024;7.540;2022-11-20T13:00:16;27.13;;;24.93;;
15454;SDS011;21057;51.024;7.540;2022-11-20T13:05:59;26.77;;;24.70;;
15454;SDS011;21057;51.024;7.540;2022-11-20T13:08:38;27.93;;;25.83;;
15454;SDS011;21057;51.024;7.540;2022-11-20T13:11:09;28.60;;;26.13;;
15454;SDS011;21057;51.024;7.540;2022-11-20T13:13:43;26.57;;;24.67;;
15454;SDS011;21057;51.024;7.540;2022-11-20T13:16:28;26.30;;;23.53;;
15454;SDS011;21057;51.024;7.540;2022-11-20T13:19:03;25.70;;;23.73;;
15454;SDS011;21057;51.024;7.540;2022-11-20T13:21:35;28.00;;;25.60;;
15454;SDS011;21057;51.024;7.540;2022-11-20T13:24:04;26.73;;;24.53;;
15454;SDS011;21057;51.024;7.540;2022-11-20T13:26:33;27.50;;;25.13;;
15454;SDS011;21057;51.024;7.540;2022-11-20T13:29:02;26.00;;;24.10;;
15454;SDS011;21057;51.024;7.540;2022-11-20T13:31:35;26.43;;;24.23;;
15454;SDS011;21057;51.024;7.540;2022-11-20T13:34:05;27.10;;;24.93;;
15454;SDS011;21057;51.024;7.540;2022-11-20T13:36:33;27.13;;;24.83;;
15454;SDS011;21057;51.024;7.540;2022-11-20T13:39:01;28.63;;;26.37;;
15454;SDS011;21057;51.024;7.540;2022-11-20T13:41:29;27.47;;;25.20;;
15454;SDS011;21057;51.024;7.540;2022-11-20T13:44:05;28.00;;;25.50;;
15454;SDS011;21057;51.024;7.540;2022-11-20T13:46:38;28.90;;;26.50;;
15454;SDS011;21057;51.024;7.540;2022-11-20T13:49:09;27.03;;;24.60;;
15454;SDS011;21057;51.024;7.540;2022-11-20T13:51:43;28.60;;;26.20;;
15454;SDS011;21057;51.024;7.540;2022-11-20T13:54:38;29.77;;;26.87;;
15454;SDS011;21057;51.024;7.540;2022-11-20T13:57:23;29.17;;;26.53;;
15454;SDS011;21057;51.024;7.540;2022-11-20T14:00:12;28.17;;;25.77;;
15454;SDS011;21057;51.024;7.540;2022-11-20T14:02:41;27.23;;;24.83;;
15454;SDS011;21057;51.024;7.540;2022-11-20T14:05:14;27.50;;;25.00;;
15454;SDS011;21057;51.024;7.540;2022-11-20T14:07:46;28.23;;;25.83;;
15454;SDS011;21057;51.024;7.540;2022-11-20T14:10:21;28.03;;;25.17;;
15454;SDS011;21057;51.024;7.540;2022-11-20T14:12:49;28.63;;;26.40;;
15454;SDS011;21057;51.024;7.540;2022-11-20T14:15:28;27.37;;;25.37;;
15454;SDS011;21057;51.024;7.540;2022-11-20T14:17:56;26.33;;;23.90;;
15454;SDS011;21057;51.024;7.540;2022-11-20T14:20:24;25.63;;;23.73;;
15454;SDS011;21057;51.024;7.540;2022-11-20T14:22:54;27.13;;;24.90;;
15454;SDS011;21057;51.024;7.540;2022-11-20T14:25:22;40.27;;;28.93;;
15454;SDS011;21057;51.024;7.540;2022-11-20T14:27:52;28.80;;;25.83;;
15454;SDS011;21057;51.024;7.540;2022-11-20T14:30:22;27.47;;;25.07;;
15454;SDS011;21057;51.024;7.540;2022-11-20T14:32:51;27.60;;;25.60;;
15454;SDS011;21057;51.024;7.540;2022-11-20T14:35:21;28.80;;;26.37;;
15454;SDS011;21057;51.024;7.540;2022-11-20T14:37:51;28.20;;;25.87;;
15454;SDS011;21057;51.024;7.540;2022-11-20T14:40:23;28.20;;;25.87;;
15454;SDS011;21057;51.024;7.540;2022-11-20T14:42:52;29.80;;;27.27;;
15454;SDS011;21057;51.024;7.540;2022-11-20T14:45:19;27.10;;;24.80;;
15454;SDS011;21057;51.024;7.540;2022-11-20T14:47:48;27.13;;;24.93;;
15454;SDS011;21057;51.024;7.540;2022-11-20T14:50:19;26.70;;;24.17;;
15454;SDS011;21057;51.024;7.540;2022-11-20T14:52:52;29.20;;;26.23;;
15454;SDS011;21057;51.024;7.540;2022-11-20T14:55:28;28.27;;;25.93;;
15454;SDS011;21057;51.024;7.540;2022-11-20T14:57:57;29.00;;;26.60;;
15454;SDS011;21057;51.024;7.540;2022-11-20T15:00:25;29.13;;;26.47;;